createdAt,value
2022-11-24T00:02:18.141Z,2.17
2022-11-24T00:04:44.909Z,1.70
2022-11-24T00:07:11.496Z,2.03
2022-11-24T00:09:38.092Z,1.83
2022-11-24T00:12:04.803Z,2.13
2022-11-24T00:14:31.858Z,2.85
2022-11-24T00:16:58.798Z,2.53
2022-11-24T00:19:25.627Z,2.35
2022-11-24T00:21:52.235Z,2.00
2022-11-24T00:24:18.829Z,2.72
2022-11-24T00:26:45.398Z,2.38
2022-11-24T00:29:12.261Z,2.17
2022-11-24T00:31:40.455Z,2.83
2022-11-24T00:34:10.367Z,2.35
2022-11-24T00:36:37.282Z,2.15
2022-11-24T00:39:06.327Z,2.15
2022-11-24T00:41:33.213Z,2.10
2022-11-24T00:44:00.118Z,2.05
2022-11-24T00:46:27.000Z,2.10
2022-11-24T00:48:54.054Z,2.22
2022-11-24T00:51:22.384Z,1.52
2022-11-24T00:53:49.238Z,2.20
2022-11-24T00:56:15.924Z,2.15
2022-11-24T00:58:42.633Z,2.05
2022-11-24T01:01:13.560Z,1.90
2022-11-24T01:03:40.596Z,2.72
2022-11-24T01:06:12.185Z,2.10
2022-11-24T01:08:39.413Z,2.03
2022-11-24T01:11:14.742Z,2.17
2022-11-24T01:13:42.489Z,2.67
2022-11-24T01:16:38.834Z,1.73
2022-11-24T01:19:05.456Z,1.73
2022-11-24T01:21:32.033Z,1.92
2022-11-24T01:23:58.629Z,1.90
2022-11-24T01:26:25.239Z,1.55
2022-11-24T01:28:55.749Z,2.22
2022-11-24T01:31:22.790Z,2.08
2022-11-24T01:33:49.465Z,2.22
2022-11-24T01:36:16.077Z,2.28
2022-11-24T01:38:42.692Z,1.98
2022-11-24T01:41:14.195Z,2.78
2022-11-24T01:43:42.000Z,1.85
2022-11-24T01:46:34.401Z,1.70
2022-11-24T01:49:30.809Z,1.90
2022-11-24T01:52:04.794Z,1.80
2022-11-24T01:54:33.550Z,1.73
2022-11-24T01:57:05.073Z,2.03
2022-11-24T01:59:31.728Z,2.58
2022-11-24T02:01:58.365Z,1.77
2022-11-24T02:04:28.040Z,2.00
2022-11-24T02:06:54.619Z,1.67
2022-11-24T02:09:37.844Z,1.92
2022-11-24T02:12:04.762Z,2.38
2022-11-24T02:14:31.510Z,1.77
2022-11-24T02:16:58.371Z,1.92
2022-11-24T02:19:39.954Z,1.85
2022-11-24T02:22:16.426Z,1.48
2022-11-24T02:25:04.328Z,1.77
2022-11-24T02:27:31.104Z,1.70
2022-11-24T02:29:57.689Z,2.33
2022-11-24T02:32:24.255Z,1.85
2022-11-24T02:34:50.870Z,1.58
2022-11-24T02:37:17.478Z,1.83
2022-11-24T02:39:44.081Z,1.75
2022-11-24T02:42:11.979Z,1.83
2022-11-24T02:44:44.486Z,1.67
2022-11-24T02:47:12.651Z,1.40
2022-11-24T02:49:39.744Z,1.80
2022-11-24T02:52:06.684Z,2.25
2022-11-24T02:54:33.524Z,1.90
2022-11-24T02:57:00.633Z,1.90
2022-11-24T02:59:27.237Z,2.33
2022-11-24T03:01:53.912Z,1.92
2022-11-24T03:04:20.549Z,1.80
2022-11-24T03:06:47.117Z,1.63
2022-11-24T03:09:13.696Z,1.55
2022-11-24T03:11:40.309Z,1.83
2022-11-24T03:14:06.924Z,2.55
2022-11-24T03:16:33.679Z,1.90
2022-11-24T03:19:00.601Z,2.00
2022-11-24T03:21:27.176Z,1.17
2022-11-24T03:23:53.851Z,1.80
2022-11-24T03:26:24.469Z,1.60
2022-11-24T03:28:54.256Z,1.73
2022-11-24T03:31:20.896Z,1.75
2022-11-24T03:33:47.550Z,1.40
2022-11-24T03:36:14.176Z,1.48
2022-11-24T03:38:40.798Z,1.60
2022-11-24T03:41:07.420Z,1.42
2022-11-24T03:43:37.823Z,1.48
2022-11-24T03:48:33.643Z,1.45
2022-11-24T03:51:01.119Z,1.63
2022-11-24T03:53:29.219Z,1.50
2022-11-24T03:55:56.105Z,1.65
2022-11-24T03:58:22.865Z,1.60
2022-11-24T04:00:52.023Z,1.83
2022-11-24T04:03:19.278Z,2.38
2022-11-24T04:05:46.351Z,1.77
2022-11-24T04:08:13.095Z,1.27
2022-11-24T04:10:40.058Z,1.30
2022-11-24T04:13:15.529Z,1.25
2022-11-24T04:15:42.619Z,1.15
2022-11-24T04:18:10.060Z,1.20
2022-11-24T04:20:36.999Z,1.55
2022-11-24T04:23:03.915Z,1.40
2022-11-24T04:25:30.590Z,1.10
2022-11-24T04:27:57.234Z,0.85
2022-11-24T04:30:24.867Z,1.67
2022-11-24T04:32:51.670Z,1.25
2022-11-24T04:35:18.567Z,1.23
2022-11-24T04:37:45.348Z,1.77
2022-11-24T04:40:12.653Z,1.48
2022-11-24T04:42:39.380Z,1.50
2022-11-24T04:45:07.082Z,1.50
2022-11-24T04:47:33.992Z,2.20
2022-11-24T04:50:00.622Z,2.38
2022-11-24T04:52:27.200Z,1.60
2022-11-24T04:54:53.835Z,1.35
2022-11-24T04:57:25.523Z,1.58
2022-11-24T04:59:52.980Z,1.23
2022-11-24T05:02:19.681Z,1.88
2022-11-24T05:04:46.542Z,1.52
2022-11-24T05:07:18.389Z,1.80
2022-11-24T05:10:05.110Z,1.77
2022-11-24T05:12:31.710Z,2.30
2022-11-24T05:15:02.306Z,1.52
2022-11-24T05:17:30.463Z,1.90
2022-11-24T05:19:57.455Z,1.50
2022-11-24T05:22:24.090Z,2.10
2022-11-24T05:24:50.795Z,1.60
2022-11-24T05:27:17.477Z,1.50
2022-11-24T05:29:44.089Z,1.48
2022-11-24T05:32:10.665Z,1.75
2022-11-24T05:34:37.656Z,2.13
2022-11-24T05:37:04.332Z,1.73
2022-11-24T05:39:35.056Z,1.95
2022-11-24T05:42:22.346Z,1.35
2022-11-24T05:44:49.177Z,2.20
2022-11-24T05:47:15.800Z,1.42
2022-11-24T05:49:42.563Z,1.65
2022-11-24T05:52:09.444Z,1.35
2022-11-24T05:54:36.372Z,2.10
2022-11-24T05:57:03.266Z,1.33
2022-11-24T05:59:29.870Z,1.52
2022-11-24T06:01:56.562Z,1.55
2022-11-24T06:04:23.190Z,1.60
2022-11-24T06:06:49.789Z,1.40
2022-11-24T06:09:16.694Z,2.08
2022-11-24T06:11:43.358Z,1.48
2022-11-24T06:14:11.573Z,2.17
2022-11-24T06:16:38.638Z,1.67
2022-11-24T06:19:05.331Z,1.85
2022-11-24T06:21:32.107Z,1.73
2022-11-24T06:23:58.925Z,2.47
2022-11-24T06:26:25.573Z,1.95
2022-11-24T06:28:52.133Z,1.63
2022-11-24T06:31:18.822Z,3.08
2022-11-24T06:33:45.608Z,3.13
2022-11-24T06:36:13.629Z,2.20
2022-11-24T06:38:40.271Z,2.40
2022-11-24T06:41:09.516Z,2.38
2022-11-24T06:43:36.364Z,2.17
2022-11-24T06:46:03.169Z,2.10
2022-11-24T06:48:30.141Z,2.20
2022-11-24T06:51:05.912Z,2.10
2022-11-24T06:53:33.511Z,2.35
2022-11-24T06:56:00.143Z,2.25
2022-11-24T06:58:26.813Z,2.28
2022-11-24T07:00:53.581Z,2.95
2022-11-24T07:03:20.320Z,2.03
2022-11-24T07:05:47.027Z,2.50
2022-11-24T07:08:17.769Z,2.25
2022-11-24T07:10:44.833Z,1.75
2022-11-24T07:13:11.440Z,2.83
2022-11-24T07:15:38.014Z,2.78
2022-11-24T07:18:04.717Z,1.98
2022-11-24T07:20:31.429Z,2.40
2022-11-24T07:22:58.500Z,2.30
2022-11-24T07:25:27.965Z,2.85
2022-11-24T07:28:01.050Z,2.28
2022-11-24T07:33:04.192Z,2.58
2022-11-24T07:35:30.860Z,3.05
2022-11-24T07:37:58.451Z,3.08
2022-11-24T07:40:26.096Z,5.20
2022-11-24T07:42:53.182Z,3.97
2022-11-24T07:45:19.792Z,2.65
2022-11-24T07:47:46.402Z,2.63
2022-11-24T07:50:13.318Z,2.55
2022-11-24T07:52:39.884Z,2.10
2022-11-24T07:55:07.798Z,2.80
2022-11-24T07:57:34.468Z,2.40
2022-11-24T08:00:01.050Z,2.85
2022-11-24T08:02:27.684Z,2.97
2022-11-24T08:04:54.294Z,2.50
2022-11-24T08:07:21.003Z,2.45
2022-11-24T08:09:47.871Z,1.67
2022-11-24T08:12:14.526Z,2.40
2022-11-24T08:14:41.103Z,1.83
2022-11-24T08:17:07.691Z,2.38
2022-11-24T08:19:35.090Z,1.90
2022-11-24T08:22:01.676Z,1.77
2022-11-24T08:24:28.486Z,1.80
2022-11-24T08:26:55.080Z,2.00
2022-11-24T08:29:21.675Z,1.73
2022-11-24T08:31:48.338Z,2.03
2022-11-24T08:34:14.969Z,1.73
2022-11-24T08:36:41.543Z,1.48
2022-11-24T08:39:09.804Z,1.52
2022-11-24T08:41:36.841Z,1.17
2022-11-24T08:44:03.511Z,1.33
2022-11-24T08:46:30.194Z,1.40
2022-11-24T08:48:56.893Z,1.48
2022-11-24T08:51:26.248Z,1.00
2022-11-24T08:54:00.728Z,1.20
2022-11-24T08:56:28.837Z,1.77
2022-11-24T08:58:55.813Z,1.75
2022-11-24T09:01:22.972Z,1.75
2022-11-24T09:03:51.258Z,1.13
2022-11-24T09:06:19.568Z,0.82
2022-11-24T09:08:46.149Z,1.40
2022-11-24T09:11:14.278Z,0.90
2022-11-24T09:13:41.186Z,0.70
2022-11-24T09:16:19.345Z,1.23
2022-11-24T09:18:46.484Z,0.85
2022-11-24T09:21:18.273Z,1.10
2022-11-24T09:23:45.590Z,1.00
2022-11-24T09:26:20.862Z,1.15
2022-11-24T09:28:48.212Z,1.05
2022-11-24T09:31:16.725Z,1.02
2022-11-24T09:33:43.930Z,1.00
2022-11-24T09:36:11.105Z,1.25
2022-11-24T09:38:37.771Z,0.60
2022-11-24T09:41:22.513Z,1.10
2022-11-24T09:44:14.593Z,1.38
2022-11-24T09:47:08.775Z,1.33
2022-11-24T09:49:51.666Z,1.90
2022-11-24T09:52:31.304Z,2.50
2022-11-24T09:55:00.611Z,2.80
2022-11-24T09:57:28.062Z,2.08
2022-11-24T09:59:59.613Z,1.30
2022-11-24T10:02:26.191Z,0.70
2022-11-24T10:04:54.839Z,0.68
2022-11-24T10:07:28.262Z,0.57
2022-11-24T10:10:18.523Z,0.38
2022-11-24T10:12:50.714Z,0.73
2022-11-24T10:15:37.151Z,0.40
2022-11-24T10:18:17.268Z,0.40
2022-11-24T10:21:15.024Z,0.40
2022-11-24T10:23:41.527Z,0.98
2022-11-24T10:26:09.174Z,0.60
2022-11-24T10:28:41.999Z,0.70
2022-11-24T10:31:21.347Z,0.63
2022-11-24T10:33:47.993Z,1.13
2022-11-24T10:36:22.006Z,0.70
2022-11-24T10:38:53.989Z,0.70
2022-11-24T10:41:25.232Z,1.13
2022-11-24T10:43:51.888Z,0.90
2022-11-24T10:46:26.750Z,0.82
2022-11-24T10:48:58.132Z,0.40
2022-11-24T10:51:36.377Z,0.38
2022-11-24T10:54:22.281Z,1.13
2022-11-24T10:56:51.572Z,0.70
2022-11-24T10:59:28.545Z,1.30
2022-11-24T11:01:55.753Z,0.88
2022-11-24T11:04:27.389Z,1.08
2022-11-24T11:07:20.154Z,0.80
2022-11-24T11:09:47.694Z,0.90
2022-11-24T11:12:43.281Z,0.70
2022-11-24T11:15:43.435Z,1.00
2022-11-24T11:18:14.790Z,1.00
2022-11-24T11:20:41.622Z,0.73
2022-11-24T11:23:16.396Z,0.60
2022-11-24T11:25:44.104Z,0.70
2022-11-24T11:28:18.807Z,0.77
2022-11-24T11:31:20.588Z,0.80
2022-11-24T11:34:22.140Z,0.60
2022-11-24T11:36:54.862Z,0.82
2022-11-24T11:39:29.172Z,0.85
2022-11-24T11:42:37.880Z,1.88
2022-11-24T11:45:27.164Z,1.20
2022-11-24T11:48:16.801Z,1.25
2022-11-24T11:51:21.293Z,0.70
2022-11-24T11:53:44.912Z,0.88
2022-11-24T11:56:31.062Z,0.90
2022-11-24T11:59:28.007Z,0.90
2022-11-24T12:02:19.034Z,0.60
2022-11-24T12:04:48.777Z,0.80
2022-11-24T12:07:28.286Z,0.93
2022-11-24T12:10:06.996Z,0.82
2022-11-24T12:12:52.088Z,0.90
2022-11-24T12:15:54.063Z,1.25
2022-11-24T12:21:28.070Z,1.58
2022-11-24T12:24:00.932Z,1.38
2022-11-24T12:26:46.402Z,1.55
2022-11-24T12:29:40.683Z,0.90
2022-11-24T12:32:28.740Z,1.60
2022-11-24T12:35:20.652Z,1.75
2022-11-24T12:38:10.658Z,1.58
2022-11-24T12:41:18.281Z,1.50
2022-11-24T12:43:53.067Z,1.98
2022-11-24T12:46:34.906Z,1.88
2022-11-24T12:49:07.564Z,1.80
2022-11-24T12:51:40.597Z,2.28
2022-11-24T12:56:56.391Z,2.40
2022-11-24T12:59:40.251Z,1.33
2022-11-24T13:02:36.052Z,1.67
2022-11-24T13:05:11.894Z,1.35
2022-11-24T13:07:44.119Z,2.03
2022-11-24T13:13:28.177Z,1.55
2022-11-24T13:16:34.757Z,1.42
2022-11-24T13:18:58.893Z,1.55
2022-11-24T13:21:48.146Z,1.48
2022-11-24T13:24:18.856Z,1.70
2022-11-24T13:27:13.558Z,1.27
2022-11-24T13:29:41.786Z,1.40
2022-11-24T13:32:08.392Z,3.08
2022-11-24T13:34:43.952Z,3.10
2022-11-24T13:37:31.523Z,2.00
2022-11-24T13:40:14.607Z,1.55
2022-11-24T13:42:57.232Z,1.60
2022-11-24T13:45:42.049Z,1.95
2022-11-24T13:48:21.751Z,1.00
2022-11-24T13:50:52.252Z,1.85
2022-11-24T13:53:37.285Z,1.65
2022-11-24T13:56:30.042Z,1.40
2022-11-24T13:59:24.156Z,1.85
2022-11-24T14:01:56.949Z,1.40
2022-11-24T14:04:33.071Z,1.60
2022-11-24T14:07:11.959Z,1.52
2022-11-24T14:09:45.102Z,1.65
2022-11-24T14:14:45.931Z,1.77
2022-11-24T14:17:27.809Z,2.55
2022-11-24T14:19:55.955Z,3.30
2022-11-24T14:22:39.548Z,2.05
2022-11-24T14:25:06.418Z,2.78
2022-11-24T14:27:35.283Z,2.47
2022-11-24T14:30:17.773Z,2.78
2022-11-24T14:33:00.950Z,1.10
2022-11-24T14:35:34.827Z,2.70
2022-11-24T14:38:02.333Z,2.28
2022-11-24T14:40:51.886Z,1.80
2022-11-24T14:43:33.732Z,1.50
2022-11-24T14:46:12.343Z,3.03
2022-11-24T14:48:40.573Z,2.90
2022-11-24T14:51:28.517Z,3.83
2022-11-24T14:54:05.426Z,3.47
2022-11-24T14:56:36.911Z,4.78
2022-11-24T14:59:04.545Z,4.55
2022-11-24T15:01:33.545Z,4.85
2022-11-24T15:07:29.209Z,3.92
2022-11-24T15:10:00.940Z,4.70
2022-11-24T15:12:34.388Z,4.43
2022-11-24T15:15:07.798Z,4.88
2022-11-24T15:17:34.591Z,3.88
2022-11-24T15:20:02.688Z,4.80
2022-11-24T15:22:29.195Z,6.20
2022-11-24T15:24:55.836Z,3.80
2022-11-24T15:27:22.463Z,3.95
2022-11-24T15:29:49.733Z,5.53
2022-11-24T15:32:16.480Z,4.80
2022-11-24T15:34:43.360Z,4.57
2022-11-24T15:37:10.092Z,4.10
2022-11-24T15:39:36.737Z,4.55
2022-11-24T15:42:03.319Z,4.63
2022-11-24T15:44:30.200Z,6.78
2022-11-24T15:46:57.099Z,6.90
2022-11-24T15:49:23.871Z,4.70
2022-11-24T15:51:50.760Z,5.43
2022-11-24T15:54:17.389Z,4.90
2022-11-24T15:56:44.663Z,3.67
2022-11-24T15:59:20.585Z,3.17
2022-11-24T16:01:49.889Z,3.75
2022-11-24T16:04:16.871Z,1.75
2022-11-24T16:06:43.648Z,2.28
2022-11-24T16:09:16.192Z,4.70
2022-11-24T16:11:43.107Z,4.75
2022-11-24T16:14:09.863Z,5.55
2022-11-24T16:16:37.031Z,4.97
2022-11-24T16:19:04.155Z,6.18
2022-11-24T16:21:30.917Z,6.80
2022-11-24T16:23:58.881Z,6.13
2022-11-24T16:26:26.582Z,5.28
2022-11-24T16:28:57.245Z,4.50
2022-11-24T16:31:23.950Z,4.78
2022-11-24T16:33:50.798Z,7.75
2022-11-24T16:36:17.366Z,6.75
2022-11-24T16:38:44.244Z,5.22
2022-11-24T16:41:11.137Z,4.60
2022-11-24T16:43:38.093Z,4.30
2022-11-24T16:46:15.691Z,3.17
2022-11-24T16:48:42.798Z,3.83
2022-11-24T16:51:10.259Z,3.72
2022-11-24T16:53:37.223Z,4.03
2022-11-24T16:56:03.919Z,4.13
2022-11-24T16:58:30.672Z,3.78
2022-11-24T17:01:07.408Z,3.80
2022-11-24T17:03:37.165Z,4.93
2022-11-24T17:06:08.392Z,4.00
2022-11-24T17:08:36.181Z,4.82
2022-11-24T17:11:10.457Z,4.55
2022-11-24T17:13:37.307Z,4.38
2022-11-24T17:16:09.003Z,4.35
2022-11-24T17:18:35.945Z,4.40
2022-11-24T17:21:09.212Z,6.18
2022-11-24T17:23:36.538Z,9.60
2022-11-24T17:26:04.972Z,10.07
2022-11-24T17:28:31.646Z,9.52
2022-11-24T17:30:58.347Z,6.85
2022-11-24T17:33:25.103Z,6.15
2022-11-24T17:35:51.678Z,5.72
2022-11-24T17:38:18.326Z,4.93
2022-11-24T17:40:48.215Z,4.90
2022-11-24T17:43:14.876Z,4.30
2022-11-24T17:45:41.656Z,3.90
2022-11-24T17:48:08.552Z,3.97
2022-11-24T17:50:35.147Z,4.05
2022-11-24T17:53:01.732Z,4.97
2022-11-24T17:55:28.401Z,4.35
2022-11-24T17:57:56.108Z,4.55
2022-11-24T18:00:23.006Z,4.10
2022-11-24T18:02:49.713Z,6.07
2022-11-24T18:05:16.451Z,6.32
2022-11-24T18:07:43.081Z,6.13
2022-11-24T18:10:10.105Z,5.03
2022-11-24T18:12:36.701Z,5.82
2022-11-24T18:15:03.753Z,9.18
2022-11-24T18:17:30.329Z,12.70
2022-11-24T18:19:57.024Z,14.73
2022-11-24T18:22:43.086Z,14.07
2022-11-24T18:25:10.256Z,15.68
2022-11-24T18:27:36.901Z,15.43
2022-11-24T18:30:04.907Z,17.42
2022-11-24T18:32:32.349Z,15.65
2022-11-24T18:34:59.150Z,11.93
2022-11-24T18:37:25.732Z,10.07
2022-11-24T18:39:52.348Z,10.13
2022-11-24T18:42:20.901Z,9.20
2022-11-24T18:44:51.128Z,5.97
2022-11-24T18:47:20.559Z,7.10
2022-11-24T18:49:47.193Z,6.88
2022-11-24T18:52:13.814Z,6.75
2022-11-24T18:54:40.908Z,7.60
2022-11-24T18:57:07.513Z,7.35
2022-11-24T18:59:34.117Z,5.70
2022-11-24T19:02:01.151Z,4.50
2022-11-24T19:04:27.843Z,5.38
2022-11-24T19:06:54.527Z,5.85
2022-11-24T19:09:24.215Z,5.18
2022-11-24T19:11:50.968Z,5.10
2022-11-24T19:14:18.631Z,5.25
2022-11-24T19:16:47.694Z,4.70
2022-11-24T19:19:14.504Z,4.68
2022-11-24T19:21:41.181Z,4.22
2022-11-24T19:24:10.211Z,5.03
2022-11-24T19:26:37.592Z,4.57
2022-11-24T19:29:04.925Z,4.75
2022-11-24T19:31:31.945Z,5.65
2022-11-24T19:33:59.857Z,4.72
2022-11-24T19:36:26.716Z,4.07
2022-11-24T19:38:57.283Z,4.30
2022-11-24T19:41:26.150Z,4.30
2022-11-24T19:43:56.444Z,4.63
2022-11-24T19:46:26.265Z,4.68
2022-11-24T19:48:57.358Z,4.85
2022-11-24T19:51:26.013Z,4.95
2022-11-24T19:53:53.285Z,5.18
2022-11-24T19:56:30.500Z,6.00
2022-11-24T19:58:57.188Z,6.80
2022-11-24T20:01:29.307Z,5.53
2022-11-24T20:04:07.270Z,5.60
2022-11-24T20:06:36.836Z,4.93
2022-11-24T20:09:04.765Z,6.05
2022-11-24T20:11:31.392Z,5.45
2022-11-24T20:13:58.386Z,5.90
2022-11-24T20:16:30.112Z,6.40
2022-11-24T20:19:01.813Z,6.45
2022-11-24T20:21:31.172Z,7.47
2022-11-24T20:24:00.110Z,5.85
2022-11-24T20:26:29.367Z,6.18
2022-11-24T20:28:57.185Z,5.90
2022-11-24T20:31:35.775Z,5.53
2022-11-24T20:34:03.918Z,5.43
2022-11-24T20:36:31.663Z,5.47
2022-11-24T20:39:02.114Z,6.20
2022-11-24T20:41:30.874Z,4.50
2022-11-24T20:43:59.886Z,5.10
2022-11-24T20:46:31.476Z,5.72
2022-11-24T20:48:58.563Z,5.88
2022-11-24T20:51:27.755Z,5.30
2022-11-24T20:53:57.173Z,6.05
2022-11-24T20:56:26.308Z,6.28
2022-11-24T20:58:53.085Z,6.03
2022-11-24T21:01:21.991Z,5.95
2022-11-24T21:03:52.531Z,5.43
2022-11-24T21:06:19.097Z,5.82
2022-11-24T21:08:45.666Z,5.50
2022-11-24T21:11:14.392Z,5.25
2022-11-24T21:13:42.725Z,4.50
2022-11-24T21:16:29.221Z,5.70
2022-11-24T21:18:57.630Z,6.43
2022-11-24T21:21:26.056Z,7.28
2022-11-24T21:23:52.834Z,5.85
2022-11-24T21:26:19.671Z,6.30
2022-11-24T21:28:47.960Z,7.18
2022-11-24T21:31:17.162Z,6.35
2022-11-24T21:33:46.355Z,6.10
2022-11-24T21:36:14.834Z,6.00
2022-11-24T21:38:42.741Z,6.72
2022-11-24T21:41:10.445Z,6.43
2022-11-24T21:43:37.081Z,7.28
2022-11-24T21:46:08.301Z,7.65
2022-11-24T21:48:35.836Z,7.07
2022-11-24T21:51:05.696Z,8.50
2022-11-24T21:53:34.072Z,9.05
2022-11-24T21:56:02.141Z,8.73
2022-11-24T21:58:29.287Z,8.73
2022-11-24T22:01:03.784Z,7.72
2022-11-24T22:03:30.465Z,7.68
2022-11-24T22:05:58.475Z,8.05
2022-11-24T22:08:26.361Z,9.05
2022-11-24T22:10:53.112Z,8.73
2022-11-24T22:13:20.009Z,8.10
2022-11-24T22:15:46.800Z,8.32
2022-11-24T22:18:13.425Z,8.65
2022-11-24T22:20:40.126Z,7.03
2022-11-24T22:23:06.687Z,8.00
2022-11-24T22:25:33.676Z,6.70
2022-11-24T22:28:00.377Z,6.72
2022-11-24T22:30:26.961Z,6.70
2022-11-24T22:32:54.116Z,6.82
2022-11-24T22:35:20.992Z,7.85
2022-11-24T22:37:47.581Z,7.22
2022-11-24T22:40:14.233Z,7.95
2022-11-24T22:42:40.780Z,7.10
2022-11-24T22:45:08.079Z,7.25
2022-11-24T22:47:34.634Z,7.55
2022-11-24T22:50:01.211Z,7.88
2022-11-24T22:52:27.786Z,7.15
2022-11-24T22:54:54.388Z,7.07
2022-11-24T22:57:20.956Z,7.75
2022-11-24T22:59:47.556Z,7.68
2022-11-24T23:02:14.118Z,8.68
2022-11-24T23:04:40.720Z,7.13
2022-11-24T23:07:07.263Z,7.63
2022-11-24T23:09:34.000Z,7.25
2022-11-24T23:12:00.565Z,6.68
2022-11-24T23:14:28.823Z,7.53
2022-11-24T23:16:55.496Z,7.45
2022-11-24T23:19:22.191Z,7.53
2022-11-24T23:21:48.829Z,7.45
2022-11-24T23:24:15.434Z,7.35
2022-11-24T23:26:42.107Z,6.38
2022-11-24T23:29:10.174Z,7.55
2022-11-24T23:31:39.824Z,6.53
2022-11-24T23:34:06.841Z,7.50
2022-11-24T23:36:33.448Z,7.55
2022-11-24T23:39:08.100Z,6.95
2022-11-24T23:41:34.833Z,7.20
2022-11-24T23:44:01.512Z,7.93
2022-11-24T23:46:28.596Z,8.55
2022-11-24T23:48:55.525Z,7.60
2022-11-24T23:51:22.945Z,7.78
2022-11-24T23:53:50.541Z,7.65
2022-11-24T23:56:22.010Z,7.88
2022-11-24T23:58:49.060Z,6.88
